createdAt,value
2017-04-18T00:01:11.038Z,1011.24
2017-04-18T00:02:10.956Z,1011.25
2017-04-18T00:03:10.893Z,1011.24
2017-04-18T00:04:10.829Z,1011.27
2017-04-18T00:05:10.765Z,1011.26
2017-04-18T00:06:10.709Z,1011.25
2017-04-18T00:07:10.647Z,1011.27
2017-04-18T00:08:10.574Z,1011.29
2017-04-18T00:09:10.510Z,1011.27
2017-04-18T00:10:10.445Z,1011.28
2017-04-18T00:11:10.383Z,1011.31
2017-04-18T00:12:10.318Z,1011.32
2017-04-18T00:13:10.254Z,1011.34
2017-04-18T00:14:10.192Z,1011.34
2017-04-18T00:15:10.127Z,1011.34
2017-04-18T00:16:10.064Z,1011.33
2017-04-18T00:17:09.999Z,1011.33
2017-04-18T00:18:09.936Z,1011.32
2017-04-18T00:19:09.872Z,1011.36
2017-04-18T00:20:09.809Z,1011.36
2017-04-18T00:21:09.744Z,1011.37
2017-04-18T00:22:09.681Z,1011.37
2017-04-18T00:23:09.617Z,1011.32
2017-04-18T00:24:09.552Z,1011.33
2017-04-18T00:25:09.489Z,1011.33
2017-04-18T00:26:09.424Z,1011.35
2017-04-18T00:27:09.361Z,1011.36
2017-04-18T00:28:09.298Z,1011.38
2017-04-18T00:29:09.234Z,1011.39
2017-04-18T00:30:09.170Z,1011.39
2017-04-18T00:31:09.106Z,1011.38
2017-04-18T00:32:09.043Z,1011.39
2017-04-18T00:33:08.980Z,1011.4
2017-04-18T00:34:08.915Z,1011.36
2017-04-18T00:35:08.852Z,1011.39
2017-04-18T00:36:08.788Z,1011.39
2017-04-18T00:37:08.723Z,1011.39
2017-04-18T00:38:08.660Z,1011.4
2017-04-18T00:39:08.597Z,1011.44
2017-04-18T00:40:08.533Z,1011.43
2017-04-18T00:41:08.469Z,1011.42
2017-04-18T00:42:08.405Z,1011.42
2017-04-18T00:43:08.342Z,1011.4
2017-04-18T00:44:08.279Z,1011.45
2017-04-18T00:45:08.213Z,1011.43
2017-04-18T00:46:08.150Z,1011.45
2017-04-18T00:47:08.087Z,1011.44
2017-04-18T00:48:08.024Z,1011.44
2017-04-18T00:49:07.960Z,1011.44
2017-04-18T00:50:07.899Z,1011.43
2017-04-18T00:51:07.832Z,1011.46
2017-04-18T00:52:07.767Z,1011.46
2017-04-18T00:53:07.704Z,1011.49
2017-04-18T00:54:07.641Z,1011.48
2017-04-18T00:55:07.576Z,1011.49
2017-04-18T00:56:07.513Z,1011.46
2017-04-18T00:57:07.448Z,1011.5
2017-04-18T00:58:07.384Z,1011.49
2017-04-18T00:59:07.321Z,1011.47
2017-04-18T01:00:07.260Z,1011.46
2017-04-18T01:01:07.194Z,1011.46
2017-04-18T01:02:07.130Z,1011.47
2017-04-18T01:03:07.066Z,1011.46
2017-04-18T01:04:07.002Z,1011.44
2017-04-18T01:05:06.939Z,1011.47
2017-04-18T01:06:06.875Z,1011.46
2017-04-18T01:07:06.812Z,1011.45
2017-04-18T01:08:06.747Z,1011.48
2017-04-18T01:09:06.684Z,1011.47
2017-04-18T01:10:06.622Z,1011.48
2017-04-18T01:11:06.556Z,1011.49
2017-04-18T01:12:06.492Z,1011.53
2017-04-18T01:13:06.438Z,1011.48
2017-04-18T01:14:06.370Z,1011.5
2017-04-18T01:15:06.309Z,1011.5
2017-04-18T01:16:06.237Z,1011.47
2017-04-18T01:17:06.173Z,1011.5
2017-04-18T01:18:06.109Z,1011.53
2017-04-18T01:19:06.047Z,1011.53
2017-04-18T01:20:05.982Z,1011.5
2017-04-18T01:21:05.918Z,1011.52
2017-04-18T01:22:05.854Z,1011.5
2017-04-18T01:23:05.790Z,1011.51
2017-04-18T01:24:05.727Z,1011.51
2017-04-18T01:25:05.666Z,1011.51
2017-04-18T01:26:05.598Z,1011.48
2017-04-18T01:27:05.536Z,1011.52
2017-04-18T01:28:05.471Z,1011.54
2017-04-18T01:29:05.408Z,1011.53
2017-04-18T01:30:05.344Z,1011.52
2017-04-18T01:31:05.281Z,1011.54
2017-04-18T01:32:05.217Z,1011.55
2017-04-18T01:33:05.154Z,1011.58
2017-04-18T01:34:05.094Z,1011.54
2017-04-18T01:35:05.026Z,1011.59
2017-04-18T01:36:04.963Z,1011.58
2017-04-18T01:37:04.898Z,1011.54
2017-04-18T01:38:04.836Z,1011.56
2017-04-18T01:39:04.771Z,1011.59
2017-04-18T01:40:04.709Z,1011.57
2017-04-18T01:41:04.644Z,1011.58
2017-04-18T01:42:04.580Z,1011.58
2017-04-18T01:43:04.517Z,1011.61
2017-04-18T01:44:04.453Z,1011.62
2017-04-18T01:45:04.389Z,1011.64
2017-04-18T01:46:04.325Z,1011.64
2017-04-18T01:47:04.261Z,1011.64
2017-04-18T01:48:04.199Z,1011.63
2017-04-18T01:49:04.134Z,1011.65
2017-04-18T01:50:04.070Z,1011.66
2017-04-18T01:51:04.007Z,1011.7
2017-04-18T01:52:03.942Z,1011.73
2017-04-18T01:53:03.879Z,1011.69
2017-04-18T01:54:03.815Z,1011.72
2017-04-18T01:55:03.751Z,1011.74
2017-04-18T01:56:03.687Z,1011.75
2017-04-18T01:57:03.623Z,1011.77
2017-04-18T01:58:03.559Z,1011.79
2017-04-18T01:59:03.497Z,1011.78
2017-04-18T02:00:03.432Z,1011.78
2017-04-18T02:01:03.369Z,1011.77
2017-04-18T02:02:03.304Z,1011.82
2017-04-18T02:03:03.241Z,1011.81
2017-04-18T02:04:03.178Z,1011.82
2017-04-18T02:05:03.112Z,1011.83
2017-04-18T02:06:03.050Z,1011.84
2017-04-18T02:07:02.985Z,1011.85
2017-04-18T02:08:02.922Z,1011.82
2017-04-18T02:09:02.859Z,1011.82
2017-04-18T02:10:02.794Z,1011.84
2017-04-18T02:11:02.732Z,1011.85
2017-04-18T02:12:02.666Z,1011.85
2017-04-18T02:13:02.604Z,1011.86
2017-04-18T02:14:02.540Z,1011.87
2017-04-18T02:15:02.477Z,1011.87
2017-04-18T02:16:02.412Z,1011.92
2017-04-18T02:17:02.349Z,1011.9
2017-04-18T02:18:02.285Z,1011.92
2017-04-18T02:19:02.220Z,1011.93
2017-04-18T02:20:02.157Z,1011.94
2017-04-18T02:21:02.094Z,1011.92
2017-04-18T02:22:02.035Z,1011.96
2017-04-18T02:23:01.965Z,1011.92
2017-04-18T02:24:01.902Z,1011.96
2017-04-18T02:25:01.838Z,1011.92
2017-04-18T02:26:01.775Z,1011.93
2017-04-18T02:27:01.711Z,1011.9
2017-04-18T02:28:01.647Z,1011.94
2017-04-18T02:29:01.585Z,1011.98
2017-04-18T02:30:01.520Z,1011.96
2017-04-18T02:31:01.457Z,1012
2017-04-18T02:32:01.392Z,1011.99
2017-04-18T02:33:01.329Z,1012.02
2017-04-18T02:34:01.264Z,1011.99
2017-04-18T02:35:01.214Z,1012.01
2017-04-18T02:36:01.137Z,1011.99
2017-04-18T02:37:01.090Z,1011.99
2017-04-18T02:38:01.026Z,1011.99
2017-04-18T02:39:00.946Z,1012.02
2017-04-18T02:40:00.882Z,1012.02
2017-04-18T02:41:00.818Z,1012.06
2017-04-18T02:42:00.755Z,1012.07
2017-04-18T02:43:00.691Z,1012.06
2017-04-18T02:44:00.627Z,1012.07
2017-04-18T02:45:00.562Z,1012.07
2017-04-18T02:46:00.499Z,1012.03
2017-04-18T02:47:00.436Z,1012.09
2017-04-18T02:48:00.372Z,1012.02
2017-04-18T02:49:00.311Z,1012.04
2017-04-18T02:50:00.244Z,1012.02
2017-04-18T02:51:00.181Z,1012.07
2017-04-18T02:52:00.118Z,1012.06
2017-04-18T02:53:00.055Z,1012.07
2017-04-18T02:53:59.990Z,1012.07
2017-04-18T02:54:59.927Z,1012.1
2017-04-18T02:55:59.862Z,1012.11
2017-04-18T02:56:59.798Z,1012.16
2017-04-18T02:57:59.734Z,1012.15
2017-04-18T02:58:59.672Z,1012.14
2017-04-18T02:59:59.608Z,1012.15
2017-04-18T03:00:59.543Z,1012.11
2017-04-18T03:01:59.480Z,1012.1
2017-04-18T03:02:59.415Z,1012.08
2017-04-18T03:03:59.352Z,1012.13
2017-04-18T03:04:59.289Z,1012.12
2017-04-18T03:05:59.227Z,1012.12
2017-04-18T03:06:59.160Z,1012.1
2017-04-18T03:07:59.097Z,1012.16
2017-04-18T03:08:59.033Z,1012.18
2017-04-18T03:09:58.970Z,1012.16
2017-04-18T03:10:58.912Z,1012.16
2017-04-18T03:11:58.843Z,1012.19
2017-04-18T03:12:58.779Z,1012.15
2017-04-18T03:13:58.715Z,1012.18
2017-04-18T03:14:58.653Z,1012.18
2017-04-18T03:15:58.587Z,1012.19
2017-04-18T03:16:58.524Z,1012.18
2017-04-18T03:17:58.460Z,1012.17
2017-04-18T03:18:58.397Z,1012.21
2017-04-18T03:19:58.334Z,1012.23
2017-04-18T03:20:58.269Z,1012.22
2017-04-18T03:21:58.205Z,1012.21
2017-04-18T03:22:58.143Z,1012.24
2017-04-18T03:23:58.105Z,1012.28
2017-04-18T03:24:58.014Z,1012.3
2017-04-18T03:25:57.950Z,1012.3
2017-04-18T03:26:57.887Z,1012.32
2017-04-18T03:27:57.830Z,1012.34
2017-04-18T03:28:57.765Z,1012.35
2017-04-18T03:29:57.700Z,1012.37
2017-04-18T03:30:57.631Z,1012.41
2017-04-18T03:31:57.567Z,1012.39
2017-04-18T03:32:57.514Z,1012.43
2017-04-18T03:33:57.440Z,1012.38
2017-04-18T03:34:57.377Z,1012.44
2017-04-18T03:35:57.313Z,1012.41
2017-04-18T03:36:57.250Z,1012.45
2017-04-18T03:37:57.185Z,1012.49
2017-04-18T03:38:57.121Z,1012.5
2017-04-18T03:39:57.059Z,1012.47
2017-04-18T03:40:57.006Z,1012.53
2017-04-18T03:41:56.930Z,1012.54
2017-04-18T03:42:56.874Z,1012.55
2017-04-18T03:43:56.816Z,1012.56
2017-04-18T03:44:56.741Z,1012.55
2017-04-18T03:45:56.676Z,1012.57
2017-04-18T03:46:56.611Z,1012.55
2017-04-18T03:47:56.547Z,1012.59
2017-04-18T03:48:56.484Z,1012.58
2017-04-18T03:49:56.420Z,1012.6
2017-04-18T03:50:56.356Z,1012.6
2017-04-18T03:51:56.294Z,1012.64
2017-04-18T03:52:56.228Z,1012.64
2017-04-18T03:53:56.165Z,1012.66
2017-04-18T03:54:56.107Z,1012.67
2017-04-18T03:55:56.038Z,1012.67
2017-04-18T03:56:55.973Z,1012.7
2017-04-18T03:57:55.910Z,1012.68
2017-04-18T03:58:55.847Z,1012.68
2017-04-18T03:59:55.782Z,1012.74
2017-04-18T04:00:55.718Z,1012.78
2017-04-18T04:01:55.654Z,1012.74
2017-04-18T04:02:55.591Z,1012.98
2017-04-18T04:03:55.527Z,1013.23
2017-04-18T04:04:55.462Z,1013.26
2017-04-18T04:05:55.399Z,1012.95
2017-04-18T04:06:55.335Z,1012.94
2017-04-18T04:07:55.273Z,1012.92
2017-04-18T04:08:55.209Z,1012.92
2017-04-18T04:09:55.148Z,1012.96
2017-04-18T04:10:55.081Z,1012.93
2017-04-18T04:11:55.018Z,1012.96
2017-04-18T04:12:54.952Z,1012.95
2017-04-18T04:13:54.889Z,1012.97
2017-04-18T04:14:54.828Z,1012.98
2017-04-18T04:15:54.762Z,1012.95
2017-04-18T04:16:54.698Z,1013.01
2017-04-18T04:17:54.635Z,1012.99
2017-04-18T04:18:54.569Z,1013
2017-04-18T04:19:54.509Z,1013.02
2017-04-18T04:20:54.442Z,1013.05
2017-04-18T04:21:54.379Z,1012.87
2017-04-18T04:22:54.315Z,1012.91
2017-04-18T04:23:54.254Z,1012.93
2017-04-18T04:24:54.187Z,1012.95
2017-04-18T04:25:54.124Z,1012.95
2017-04-18T04:26:54.063Z,1012.98
2017-04-18T04:27:53.996Z,1012.96
2017-04-18T04:28:53.933Z,1012.99
2017-04-18T04:29:53.868Z,1013
2017-04-18T04:30:53.804Z,1013
2017-04-18T04:31:53.739Z,1013.01
2017-04-18T04:32:53.678Z,1013.02
2017-04-18T04:33:53.613Z,1013.05
2017-04-18T04:34:53.549Z,1013.02
2017-04-18T04:35:53.485Z,1013.06
2017-04-18T04:36:53.421Z,1013.1
2017-04-18T04:37:53.356Z,1013.11
2017-04-18T04:38:53.293Z,1013.07
2017-04-18T04:39:53.229Z,1013.1
2017-04-18T04:40:53.167Z,1013.12
2017-04-18T04:41:53.101Z,1013.13
2017-04-18T04:42:53.039Z,1013.16
2017-04-18T04:43:52.974Z,1013.14
2017-04-18T04:44:52.910Z,1013.19
2017-04-18T04:45:52.847Z,1013.19
2017-04-18T04:46:52.785Z,1013.17
2017-04-18T04:47:52.719Z,1013.21
2017-04-18T04:48:52.656Z,1013.2
2017-04-18T04:49:52.590Z,1013.25
2017-04-18T04:50:52.728Z,1013.28
2017-04-18T04:51:52.465Z,1013.29
2017-04-18T04:52:52.400Z,1013.29
2017-04-18T04:53:52.335Z,1013.32
2017-04-18T04:54:52.271Z,1013.33
2017-04-18T04:55:52.206Z,1013.31
2017-04-18T04:56:52.142Z,1013.38
2017-04-18T04:57:52.080Z,1013.32
2017-04-18T04:58:52.016Z,1013.37
2017-04-18T04:59:51.951Z,1013.39
2017-04-18T05:00:51.888Z,1013.42
2017-04-18T05:01:51.823Z,1013.44
2017-04-18T05:02:51.760Z,1013.46
2017-04-18T05:03:51.695Z,1013.47
2017-04-18T05:04:51.630Z,1013.5
2017-04-18T05:05:51.568Z,1013.5
2017-04-18T05:06:51.502Z,1013.51
2017-04-18T05:07:51.439Z,1013.56
2017-04-18T05:08:51.375Z,1013.56
2017-04-18T05:09:51.311Z,1013.6
2017-04-18T05:10:51.246Z,1013.62
2017-04-18T05:11:51.183Z,1013.61
2017-04-18T05:12:51.118Z,1013.65
2017-04-18T05:13:51.056Z,1013.66
2017-04-18T05:14:50.991Z,1013.66
2017-04-18T05:15:50.927Z,1013.64
2017-04-18T05:16:50.863Z,1013.67
2017-04-18T05:17:50.800Z,1013.68
2017-04-18T05:18:50.734Z,1013.7
2017-04-18T05:19:50.671Z,1013.7
2017-04-18T05:20:50.607Z,1013.7
2017-04-18T05:21:50.542Z,1013.75
2017-04-18T05:22:50.479Z,1013.74
2017-04-18T05:23:50.419Z,1013.76
2017-04-18T05:24:50.351Z,1013.76
2017-04-18T05:25:50.286Z,1013.79
2017-04-18T05:26:50.223Z,1013.73
2017-04-18T05:27:50.158Z,1013.7
2017-04-18T05:28:50.093Z,1013.76
2017-04-18T05:29:50.030Z,1013.8
2017-04-18T05:30:49.965Z,1013.81
2017-04-18T05:31:49.903Z,1013.8
2017-04-18T05:32:49.837Z,1013.83
2017-04-18T05:33:49.773Z,1013.84
2017-04-18T05:34:49.709Z,1013.87
2017-04-18T05:35:49.647Z,1013.9
2017-04-18T05:36:49.581Z,1013.89
2017-04-18T05:37:49.518Z,1013.93
2017-04-18T05:38:49.453Z,1013.97
2017-04-18T05:39:49.388Z,1013.95
2017-04-18T05:40:49.326Z,1013.96
2017-04-18T05:41:49.260Z,1013.97
2017-04-18T05:42:49.197Z,1013.99
2017-04-18T05:43:49.133Z,1013.99
2017-04-18T05:44:49.068Z,1014.02
2017-04-18T05:45:49.005Z,1014.01
2017-04-18T05:46:48.941Z,1014.07
2017-04-18T05:47:48.877Z,1014.1
2017-04-18T05:48:48.812Z,1014.03
2017-04-18T05:49:48.748Z,1014.09
2017-04-18T05:50:48.684Z,1014.12
2017-04-18T05:51:48.620Z,1014.11
2017-04-18T05:52:48.556Z,1014.16
2017-04-18T05:53:48.492Z,1014.16
2017-04-18T05:54:48.428Z,1014.19
2017-04-18T05:55:48.365Z,1014.18
2017-04-18T05:56:48.299Z,1014.19
2017-04-18T05:57:48.236Z,1014.19
2017-04-18T05:58:48.171Z,1014.24
2017-04-18T05:59:48.107Z,1014.24
2017-04-18T06:00:48.043Z,1014.26
2017-04-18T06:01:47.978Z,1014.29
2017-04-18T06:02:47.915Z,1014.32
2017-04-18T06:03:47.853Z,1014.35
2017-04-18T06:04:47.786Z,1014.34
2017-04-18T06:05:47.721Z,1014.31
2017-04-18T06:06:47.659Z,1014.4
2017-04-18T06:07:47.594Z,1014.44
2017-04-18T06:08:47.530Z,1014.48
2017-04-18T06:09:47.465Z,1014.52
2017-04-18T06:10:47.402Z,1014.49
2017-04-18T06:11:47.338Z,1014.51
2017-04-18T06:12:47.272Z,1014.57
2017-04-18T06:13:47.210Z,1014.59
2017-04-18T06:14:47.146Z,1014.57
2017-04-18T06:15:47.081Z,1014.65
2017-04-18T06:16:47.016Z,1014.65
2017-04-18T06:17:46.952Z,1014.73
2017-04-18T06:18:46.891Z,1014.66
2017-04-18T06:19:46.824Z,1014.74
2017-04-18T06:20:46.761Z,1014.78
2017-04-18T06:21:46.696Z,1014.81
2017-04-18T06:22:46.633Z,1014.85
2017-04-18T06:23:46.568Z,1014.79
2017-04-18T06:24:46.508Z,1014.81
2017-04-18T06:25:46.440Z,1014.82
2017-04-18T06:26:46.377Z,1014.78
2017-04-18T06:27:46.313Z,1014.82
2017-04-18T06:28:46.246Z,1014.81
2017-04-18T06:29:46.185Z,1014.81
2017-04-18T06:30:46.119Z,1014.85
2017-04-18T06:31:46.056Z,1014.88
2017-04-18T06:32:45.993Z,1014.89
2017-04-18T06:33:45.927Z,1014.91
2017-04-18T06:34:45.862Z,1014.92
2017-04-18T06:35:45.798Z,1014.9
2017-04-18T06:36:45.735Z,1014.93
2017-04-18T06:37:45.671Z,1014.97
2017-04-18T06:38:45.605Z,1015
2017-04-18T06:39:45.542Z,1015
2017-04-18T06:40:45.479Z,1015.03
2017-04-18T06:41:45.413Z,1015.04
2017-04-18T06:42:45.349Z,1015.06
2017-04-18T06:43:45.285Z,1015.06
2017-04-18T06:44:45.220Z,1015.09
2017-04-18T06:45:45.158Z,1015.11
2017-04-18T06:46:45.091Z,1015.11
2017-04-18T06:47:45.029Z,1015.09
2017-04-18T06:48:44.967Z,1015.11
2017-04-18T06:49:44.900Z,1015.12
2017-04-18T06:50:44.835Z,1015.1
2017-04-18T06:51:44.779Z,1015.13
2017-04-18T06:52:44.707Z,1015.15
2017-04-18T06:53:44.643Z,1015.12
2017-04-18T06:54:44.580Z,1015.13
2017-04-18T06:55:44.515Z,1015.16
2017-04-18T06:56:44.451Z,1015.15
2017-04-18T06:57:44.387Z,1015.16
2017-04-18T06:58:44.323Z,1015.2
2017-04-18T06:59:44.258Z,1015.26
2017-04-18T07:00:44.193Z,1015.29
2017-04-18T07:01:44.130Z,1015.33
2017-04-18T07:02:44.064Z,1015.33
2017-04-18T07:03:44.002Z,1015.34
2017-04-18T07:04:43.938Z,1015.42
2017-04-18T07:05:43.873Z,1015.4
2017-04-18T07:06:43.809Z,1015.39
2017-04-18T07:07:43.746Z,1015.38
2017-04-18T07:08:43.680Z,1015.39
2017-04-18T07:09:43.617Z,1015.43
2017-04-18T07:10:43.652Z,1015.46
2017-04-18T07:11:43.487Z,1015.46
2017-04-18T07:12:43.423Z,1015.44
2017-04-18T07:13:43.359Z,1015.43
2017-04-18T07:14:43.294Z,1015.46
2017-04-18T07:15:43.230Z,1015.46
2017-04-18T07:16:43.166Z,1015.46
2017-04-18T07:17:43.103Z,1015.48
2017-04-18T07:18:43.039Z,1015.5
2017-04-18T07:19:43.003Z,1015.51
2017-04-18T07:20:42.910Z,1015.49
2017-04-18T07:21:42.845Z,1015.53
2017-04-18T07:22:42.786Z,1015.46
2017-04-18T07:23:42.721Z,1015.53
2017-04-18T07:24:42.654Z,1015.54
2017-04-18T07:25:42.588Z,1015.52
2017-04-18T07:26:42.525Z,1015.59
2017-04-18T07:27:42.460Z,1015.62
2017-04-18T07:28:42.396Z,1015.64
2017-04-18T07:29:42.332Z,1015.7
2017-04-18T07:30:42.268Z,1015.7
2017-04-18T07:31:42.203Z,1015.74
2017-04-18T07:32:42.139Z,1015.76
2017-04-18T07:33:42.074Z,1015.8
2017-04-18T07:34:42.009Z,1015.81
2017-04-18T07:35:41.947Z,1015.83
2017-04-18T07:36:41.881Z,1015.85
2017-04-18T07:37:41.820Z,1015.86
2017-04-18T07:38:41.754Z,1015.87
2017-04-18T07:39:41.690Z,1015.89
2017-04-18T07:40:41.625Z,1015.88
2017-04-18T07:41:41.561Z,1015.92
2017-04-18T07:42:41.496Z,1015.95
2017-04-18T07:43:41.434Z,1015.99
2017-04-18T07:44:41.367Z,1016.03
2017-04-18T07:45:41.303Z,1015.99
2017-04-18T07:46:41.241Z,1016.01
2017-04-18T07:47:41.174Z,1016.05
2017-04-18T07:48:41.112Z,1016.09
2017-04-18T07:49:41.048Z,1016.06
2017-04-18T07:50:40.984Z,1016.1
2017-04-18T07:51:40.918Z,1016.1
2017-04-18T07:52:40.859Z,1016.14
2017-04-18T07:53:40.791Z,1016.16
2017-04-18T07:54:40.730Z,1016.13
2017-04-18T07:55:40.668Z,1016.17
2017-04-18T07:56:40.599Z,1016.16
2017-04-18T07:57:40.534Z,1016.14
2017-04-18T07:58:40.470Z,1016.2
2017-04-18T07:59:40.405Z,1016.24
2017-04-18T08:00:40.593Z,1016.18
2017-04-18T08:01:40.277Z,1016.17
2017-04-18T08:02:40.213Z,1016.21
2017-04-18T08:03:40.148Z,1016.22
2017-04-18T08:04:40.084Z,1016.22
2017-04-18T08:05:40.119Z,1016.29
2017-04-18T08:06:39.985Z,1016.26
2017-04-18T08:07:39.893Z,1016.26
2017-04-18T08:08:39.828Z,1016.28
2017-04-18T08:09:39.762Z,1016.32
2017-04-18T08:10:39.699Z,1016.35
2017-04-18T08:11:39.635Z,1016.39
2017-04-18T08:12:39.572Z,1016.4
2017-04-18T08:13:39.509Z,1016.4
2017-04-18T08:14:39.442Z,1016.45
2017-04-18T08:15:39.379Z,1016.42
2017-04-18T08:16:39.314Z,1016.51
2017-04-18T08:17:39.250Z,1016.41
2017-04-18T08:18:39.187Z,1016.46
2017-04-18T08:19:39.123Z,1016.48
2017-04-18T08:20:39.256Z,1016.52
2017-04-18T08:21:38.993Z,1016.5
2017-04-18T08:22:38.928Z,1016.52
2017-04-18T08:23:38.874Z,1016.54
2017-04-18T08:24:38.798Z,1016.57
2017-04-18T08:25:38.735Z,1016.59
2017-04-18T08:26:38.672Z,1016.61
2017-04-18T08:27:38.605Z,1016.63
2017-04-18T08:28:38.543Z,1016.62
2017-04-18T08:29:38.479Z,1016.61
2017-04-18T08:30:38.414Z,1016.62
2017-04-18T08:31:38.350Z,1016.72
2017-04-18T08:32:38.285Z,1016.74
2017-04-18T08:33:38.220Z,1016.71
2017-04-18T08:34:38.157Z,1016.72
2017-04-18T08:35:38.091Z,1016.74
2017-04-18T08:36:38.029Z,1016.79
2017-04-18T08:37:37.964Z,1016.75
2017-04-18T08:38:37.900Z,1016.76
2017-04-18T08:39:37.834Z,1016.77
2017-04-18T08:40:37.771Z,1016.81
2017-04-18T08:41:37.707Z,1016.81
2017-04-18T08:42:37.642Z,1016.83
2017-04-18T08:43:37.578Z,1016.81
2017-04-18T08:44:37.514Z,1016.84
2017-04-18T08:45:37.449Z,1016.86
2017-04-18T08:46:37.384Z,1016.84
2017-04-18T08:47:37.322Z,1016.9
2017-04-18T08:48:37.259Z,1016.92
2017-04-18T08:49:37.192Z,1016.92
2017-04-18T08:50:37.129Z,1016.9
2017-04-18T08:51:37.064Z,1016.96
2017-04-18T08:52:37.000Z,1016.92
2017-04-18T08:53:36.935Z,1016.96
2017-04-18T08:54:36.875Z,1016.95
2017-04-18T08:55:36.907Z,1016.95
2017-04-18T08:56:36.744Z,1016.95
2017-04-18T08:57:36.683Z,1016.96
2017-04-18T08:58:36.615Z,1017.01
2017-04-18T08:59:36.552Z,1016.95
2017-04-18T09:00:36.887Z,1017.04
2017-04-18T09:01:36.422Z,1017.06
2017-04-18T09:02:36.359Z,1017.04
2017-04-18T09:03:36.294Z,1017.06
2017-04-18T09:04:36.230Z,1017.09
2017-04-18T09:05:36.466Z,1017.08
2017-04-18T09:06:36.102Z,1017.12
2017-04-18T09:07:36.039Z,1017.14
2017-04-18T09:08:35.974Z,1017.15
2017-04-18T09:09:35.909Z,1017.15
2017-04-18T09:10:36.095Z,1017.16
2017-04-18T09:11:35.786Z,1017.21
2017-04-18T09:12:35.717Z,1017.19
2017-04-18T09:13:35.654Z,1017.22
2017-04-18T09:14:35.590Z,1017.23
2017-04-18T09:15:35.528Z,1017.28
2017-04-18T09:16:35.461Z,1017.27
2017-04-18T09:17:35.399Z,1017.27
2017-04-18T09:18:35.349Z,1017.31
2017-04-18T09:19:35.272Z,1017.31
2017-04-18T09:20:35.205Z,1017.31
2017-04-18T09:21:35.141Z,1017.35
2017-04-18T09:22:35.077Z,1017.33
2017-04-18T09:23:35.013Z,1017.37
2017-04-18T09:24:34.949Z,1017.4
2017-04-18T09:25:34.886Z,1017.4
2017-04-18T09:26:34.821Z,1017.38
2017-04-18T09:27:34.758Z,1017.43
2017-04-18T09:28:34.696Z,1017.42
2017-04-18T09:29:34.631Z,1017.39
2017-04-18T09:30:34.566Z,1017.41
2017-04-18T09:31:34.522Z,1017.47
2017-04-18T09:32:34.438Z,1017.48
2017-04-18T09:33:34.374Z,1017.51
2017-04-18T09:34:34.310Z,1017.51
2017-04-18T09:35:34.246Z,1017.53
2017-04-18T09:36:34.184Z,1017.54
2017-04-18T09:37:34.119Z,1017.53
2017-04-18T09:38:34.068Z,1017.54
2017-04-18T09:39:33.991Z,1017.54
2017-04-18T09:40:33.926Z,1017.52
2017-04-18T09:41:33.869Z,1017.56
2017-04-18T09:42:33.799Z,1017.55
2017-04-18T09:43:33.735Z,1017.54
2017-04-18T09:44:33.676Z,1017.55
2017-04-18T09:45:33.709Z,1017.57
2017-04-18T09:46:33.544Z,1017.58
2017-04-18T09:47:33.479Z,1017.57
2017-04-18T09:48:33.456Z,1017.58
2017-04-18T09:49:33.351Z,1017.58
2017-04-18T09:50:33.290Z,1017.59
2017-04-18T09:51:33.224Z,1017.57
2017-04-18T09:52:33.161Z,1017.58
2017-04-18T09:53:33.097Z,1017.62
2017-04-18T09:54:33.032Z,1017.67
2017-04-18T09:55:33.220Z,1017.67
2017-04-18T09:56:32.904Z,1017.62
2017-04-18T09:57:32.842Z,1017.69
2017-04-18T09:58:32.777Z,1017.66
2017-04-18T09:59:32.713Z,1017.67
2017-04-18T10:00:32.869Z,1017.63
2017-04-18T10:01:32.586Z,1017.67
2017-04-18T10:02:32.522Z,1017.69
2017-04-18T10:03:32.465Z,1017.79
2017-04-18T10:04:32.441Z,1017.75
2017-04-18T10:05:32.331Z,1017.76
2017-04-18T10:06:32.266Z,1017.76
2017-04-18T10:07:32.203Z,1017.79
2017-04-18T10:08:32.141Z,1017.77
2017-04-18T10:09:32.076Z,1017.77
2017-04-18T10:10:32.012Z,1017.8
2017-04-18T10:11:31.948Z,1017.8
2017-04-18T10:12:31.885Z,1017.78
2017-04-18T10:13:31.821Z,1017.79
2017-04-18T10:14:31.757Z,1017.81
2017-04-18T10:15:31.693Z,1017.79
2017-04-18T10:16:31.634Z,1017.83
2017-04-18T10:17:31.564Z,1017.84
2017-04-18T10:18:31.501Z,1017.83
2017-04-18T10:19:31.438Z,1017.79
2017-04-18T10:20:31.525Z,1017.84
2017-04-18T10:21:31.310Z,1017.81
2017-04-18T10:22:31.397Z,1017.86
2017-04-18T10:23:31.185Z,1017.89
2017-04-18T10:24:31.119Z,1017.82
2017-04-18T10:25:31.056Z,1017.8
2017-04-18T10:26:31.005Z,1017.87
2017-04-18T10:27:30.929Z,1017.83
2017-04-18T10:28:30.868Z,1017.84
2017-04-18T10:29:30.802Z,1017.76
2017-04-18T10:30:30.738Z,1017.81
2017-04-18T10:31:30.675Z,1017.82
2017-04-18T10:32:30.611Z,1017.81
2017-04-18T10:33:30.546Z,1017.77
2017-04-18T10:34:30.483Z,1017.83
2017-04-18T10:35:30.421Z,1017.84
2017-04-18T10:36:30.356Z,1017.86
2017-04-18T10:37:30.293Z,1017.87
2017-04-18T10:38:30.228Z,1017.86
2017-04-18T10:39:30.164Z,1017.88
2017-04-18T10:40:30.301Z,1017.88
2017-04-18T10:41:30.040Z,1017.87
2017-04-18T10:42:29.974Z,1017.79
2017-04-18T10:43:29.910Z,1017.83
2017-04-18T10:44:29.849Z,1017.81
2017-04-18T10:45:29.783Z,1017.92
2017-04-18T10:46:29.719Z,1017.89
2017-04-18T10:47:29.656Z,1017.96
2017-04-18T10:48:29.592Z,1017.88
2017-04-18T10:49:29.528Z,1017.86
2017-04-18T10:50:29.465Z,1017.89
2017-04-18T10:51:29.401Z,1017.89
2017-04-18T10:52:29.338Z,1017.89
2017-04-18T10:53:29.275Z,1017.89
2017-04-18T10:54:29.210Z,1017.92
2017-04-18T10:55:29.147Z,1017.96
2017-04-18T10:56:29.083Z,1017.96
2017-04-18T10:57:29.020Z,1017.92
2017-04-18T10:58:28.961Z,1017.91
2017-04-18T10:59:28.894Z,1017.88
2017-04-18T11:00:28.829Z,1017.94
2017-04-18T11:01:28.765Z,1017.89
2017-04-18T11:02:28.703Z,1017.92
2017-04-18T11:03:28.643Z,1018.02
2017-04-18T11:04:28.575Z,1017.96
2017-04-18T11:05:28.512Z,1018.02
2017-04-18T11:06:28.448Z,1018
2017-04-18T11:07:28.409Z,1018.01
2017-04-18T11:08:28.322Z,1018.02
2017-04-18T11:09:28.265Z,1018.05
2017-04-18T11:10:28.194Z,1018.1
2017-04-18T11:11:28.138Z,1018.05
2017-04-18T11:12:28.068Z,1018.07
2017-04-18T11:13:28.004Z,1018.05
2017-04-18T11:14:27.940Z,1018.05
2017-04-18T11:15:27.976Z,1018.05
2017-04-18T11:16:27.812Z,1017.95
2017-04-18T11:17:27.748Z,1017.98
2017-04-18T11:18:27.689Z,1018.03
2017-04-18T11:19:27.622Z,1018.07
2017-04-18T11:20:27.558Z,1018.09
2017-04-18T11:21:27.494Z,1018.08
2017-04-18T11:22:27.441Z,1018.12
2017-04-18T11:23:27.368Z,1018.1
2017-04-18T11:24:27.306Z,1018.05
2017-04-18T11:25:27.240Z,1018.1
2017-04-18T11:26:27.181Z,1018.09
2017-04-18T11:27:27.122Z,1018.16
2017-04-18T11:28:27.050Z,1018.18
2017-04-18T11:29:26.996Z,1018.16
2017-04-18T11:30:26.922Z,1018.19
2017-04-18T11:31:26.859Z,1018.21
2017-04-18T11:32:26.795Z,1018.21
2017-04-18T11:33:26.736Z,1018.1
2017-04-18T11:34:26.669Z,1018.16
2017-04-18T11:35:26.605Z,1018.16
2017-04-18T11:36:26.541Z,1018.23
2017-04-18T11:37:26.492Z,1018.14
2017-04-18T11:38:26.413Z,1018.2
2017-04-18T11:39:26.351Z,1018.19
2017-04-18T11:40:26.291Z,1018.15
2017-04-18T11:41:26.224Z,1018.18
2017-04-18T11:42:26.160Z,1018.19
2017-04-18T11:43:26.095Z,1018.19
2017-04-18T11:44:26.039Z,1018.17
2017-04-18T11:45:25.969Z,1018.14
2017-04-18T11:46:25.906Z,1018.21
2017-04-18T11:47:25.849Z,1018.2
2017-04-18T11:48:25.778Z,1018.25
2017-04-18T11:49:25.714Z,1018.26
2017-04-18T11:50:25.651Z,1018.31
2017-04-18T11:51:25.588Z,1018.29
2017-04-18T11:52:25.524Z,1018.35
2017-04-18T11:53:25.459Z,1018.36
2017-04-18T11:54:25.397Z,1018.44
2017-04-18T11:55:25.335Z,1018.36
2017-04-18T11:56:25.270Z,1018.33
2017-04-18T11:57:25.205Z,1018.39
2017-04-18T11:58:25.143Z,1018.4
2017-04-18T11:59:25.078Z,1018.37
2017-04-18T12:00:25.014Z,1018.42
2017-04-18T12:01:24.952Z,1018.39
2017-04-18T12:02:24.888Z,1018.41
2017-04-18T12:03:24.824Z,1018.45
2017-04-18T12:04:24.782Z,1018.47
2017-04-18T12:05:24.699Z,1018.51
2017-04-18T12:06:24.634Z,1018.54
2017-04-18T12:07:24.580Z,1018.51
2017-04-18T12:08:24.506Z,1018.51